Time;durP1;ratioP1;P1;durP2;ratioP2;P2;SDS_P1;SDS_P2;PMS_P1;PMS_P2;Temp;Humidity;BMP_temperature;BMP_pressure;BME280_temperature;BME280_humidity;BME280_pressure;Samples;Min_cycle;Max_cycle;Signal;HPM_P1;HPM_P2
2023/06/22 00:02:04;;;;;;;7.15;6.63;;;;;;;;;;5078515;28;20218;-59
2023/06/22 00:04:32;;;;;;;6.65;6.15;;;;;;;;;;5078044;28;20196;-59
2023/06/22 00:06:59;;;;;;;7.07;6.57;;;;;;;;;;5077841;28;20216;-60
2023/06/22 00:09:27;;;;;;;7.13;6.57;;;;;;;;;;5078030;28;20239;-59
2023/06/22 00:11:54;;;;;;;6.90;6.40;;;;;;;;;;5077823;28;20588;-59
2023/06/22 00:14:24;;;;;;;6.88;6.38;;;;;;;;;;5078285;28;20479;-59
2023/06/22 00:16:57;;;;;;;7.13;6.55;;;;;;;;;;5078138;28;20204;-59
2023/06/22 00:19:24;;;;;;;6.68;6.18;;;;;;;;;;5078230;28;20607;-59
2023/06/22 00:21:53;;;;;;;7.18;6.65;;;;;;;;;;5077805;28;20493;-59
2023/06/22 00:24:20;;;;;;;7.13;6.63;;;;;;;;;;5078128;28;20226;-60
2023/06/22 00:26:48;;;;;;;7.10;6.60;;;;;;;;;;5078063;28;20304;-60
2023/06/22 00:29:16;;;;;;;6.88;6.38;;;;;;;;;;5077172;28;20472;-60
2023/06/22 00:31:45;;;;;;;7.35;6.85;;;;;;;;;;5077866;28;20212;-60
2023/06/22 00:34:13;;;;;;;6.70;6.30;;;;;;;;;;5077579;28;20295;-59
2023/06/22 00:36:41;;;;;;;7.20;6.60;;;;;;;;;;5077497;28;20271;-59
2023/06/22 00:39:08;;;;;;;7.22;6.70;;;;;;;;;;5077824;28;20230;-59
2023/06/22 00:41:36;;;;;;;7.30;6.70;;;;;;;;;;5077888;28;20242;-60
2023/06/22 00:44:04;;;;;;;7.10;6.60;;;;;;;;;;5077469;28;20204;-59
2023/06/22 00:46:32;;;;;;;6.85;6.30;;;;;;;;;;5077449;28;20287;-60
2023/06/22 00:49:01;;;;;;;7.18;6.68;;;;;;;;;;5077410;28;20600;-59
2023/06/22 00:51:29;;;;;;;7.32;6.70;;;;;;;;;;5077528;28;20204;-59
2023/06/22 00:53:57;;;;;;;6.90;6.40;;;;;;;;;;5077695;28;20266;-60
2023/06/22 00:56:25;;;;;;;7.55;6.95;;;;;;;;;;5077436;28;20204;-60
2023/06/22 00:58:53;;;;;;;6.90;6.32;;;;;;;;;;5077697;28;20278;-59
2023/06/22 01:01:23;;;;;;;7.30;6.80;;;;;;;;;;5077251;28;20212;-60
2023/06/22 01:03:52;;;;;;;7.18;6.68;;;;;;;;;;5077362;28;20485;-59
2023/06/22 01:06:26;;;;;;;7.05;6.45;;;;;;;;;;5077606;28;20215;-59
2023/06/22 01:08:58;;;;;;;6.75;6.22;;;;;;;;;;5077809;28;20600;-59
2023/06/22 01:11:27;;;;;;;6.68;6.18;;;;;;;;;;5077302;28;20211;-60
2023/06/22 01:13:59;;;;;;;6.70;6.20;;;;;;;;;;5077508;28;20204;-60
2023/06/22 01:16:28;;;;;;;7.15;6.60;;;;;;;;;;5077441;28;20204;-59
2023/06/22 01:18:57;;;;;;;6.82;6.40;;;;;;;;;;5077515;28;20212;-59
2023/06/22 01:21:27;;;;;;;7.03;6.45;;;;;;;;;;5077590;28;20208;-59
2023/06/22 01:24:03;;;;;;;7.22;6.63;;;;;;;;;;5077412;28;20204;-59
2023/06/22 01:26:37;;;;;;;6.45;6.05;;;;;;;;;;5076450;28;20537;-59
2023/06/22 01:29:07;;;;;;;6.53;6.03;;;;;;;;;;5076337;28;20211;-60
2023/06/22 01:31:35;;;;;;;6.95;6.43;;;;;;;;;;5076080;28;20592;-60
2023/06/22 01:34:04;;;;;;;6.72;6.20;;;;;;;;;;5075962;28;20259;-59
2023/06/22 01:36:33;;;;;;;6.82;6.32;;;;;;;;;;5076004;28;20611;-59
2023/06/22 01:39:00;;;;;;;6.63;6.13;;;;;;;;;;5076438;28;20247;-59
2023/06/22 01:41:29;;;;;;;7.10;6.60;;;;;;;;;;5080137;28;20204;-59
2023/06/22 01:43:57;;;;;;;6.28;5.78;;;;;;;;;;5079916;28;20270;-59
2023/06/22 01:46:26;;;;;;;7.18;6.60;;;;;;;;;;5080509;28;20216;-59
2023/06/22 01:48:55;;;;;;;6.75;6.25;;;;;;;;;;5081320;28;20486;-60
2023/06/22 01:51:22;;;;;;;6.50;6.00;;;;;;;;;;5080857;28;20208;-59
2023/06/22 01:53:50;;;;;;;6.70;6.20;;;;;;;;;;5080896;28;20550;-59
2023/06/22 01:56:19;;;;;;;7.55;6.95;;;;;;;;;;5081057;28;20270;-59
2023/06/22 01:58:50;;;;;;;7.30;6.80;;;;;;;;;;5080358;28;20649;-59
2023/06/22 02:01:22;;;;;;;6.93;6.35;;;;;;;;;;5080685;28;20254;-59
2023/06/22 02:03:54;;;;;;;6.95;6.45;;;;;;;;;;5080525;28;20214;-59
2023/06/22 02:06:23;;;;;;;6.95;6.45;;;;;;;;;;5080725;28;20215;-60
2023/06/22 02:08:53;;;;;;;6.78;6.30;;;;;;;;;;5080534;28;20208;-60
2023/06/22 02:11:22;;;;;;;6.75;6.25;;;;;;;;;;5080449;28;20236;-59
2023/06/22 02:13:50;;;;;;;6.50;6.10;;;;;;;;;;5080345;28;20204;-59
2023/06/22 02:16:19;;;;;;;6.63;6.13;;;;;;;;;;5080682;28;20287;-60
2023/06/22 02:18:50;;;;;;;7.13;6.63;;;;;;;;;;5080544;28;20465;-59
2023/06/22 02:21:19;;;;;;;6.75;6.25;;;;;;;;;;5080517;28;20201;-59
2023/06/22 02:23:47;;;;;;;7.00;6.50;;;;;;;;;;5080751;28;20208;-59
2023/06/22 02:26:15;;;;;;;6.60;6.10;;;;;;;;;;5080428;28;20207;-59
2023/06/22 02:28:42;;;;;;;7.20;6.70;;;;;;;;;;5080445;28;20211;-60
2023/06/22 02:31:10;;;;;;;7.18;6.68;;;;;;;;;;5080360;28;20236;-59
2023/06/22 02:33:38;;;;;;;6.78;6.28;;;;;;;;;;5080353;28;20204;-59
2023/06/22 02:36:08;;;;;;;7.10;6.50;;;;;;;;;;5079845;28;20615;-59
2023/06/22 02:38:37;;;;;;;6.68;6.18;;;;;;;;;;5080130;28;20289;-59
2023/06/22 02:41:06;;;;;;;6.90;6.40;;;;;;;;;;5079946;28;20200;-59
2023/06/22 02:43:33;;;;;;;6.80;6.28;;;;;;;;;;5080091;28;20205;-59
2023/06/22 02:46:01;;;;;;;7.00;6.35;;;;;;;;;;5079695;28;20208;-59
2023/06/22 02:48:29;;;;;;;6.90;6.40;;;;;;;;;;5079866;28;20611;-59
2023/06/22 02:50:57;;;;;;;7.60;6.97;;;;;;;;;;5078826;28;20518;-59
2023/06/22 02:53:25;;;;;;;7.40;6.75;;;;;;;;;;5079735;28;20216;-59
2023/06/22 02:55:54;;;;;;;6.72;6.30;;;;;;;;;;5079393;28;20204;-59
2023/06/22 02:58:22;;;;;;;6.90;6.40;;;;;;;;;;5079756;28;20277;-59
2023/06/22 03:00:52;;;;;;;6.85;6.35;;;;;;;;;;5079305;28;20208;-59
2023/06/22 03:03:20;;;;;;;7.03;6.53;;;;;;;;;;5079257;28;20330;-59
2023/06/22 03:05:48;;;;;;;7.60;7.00;;;;;;;;;;5078828;28;20214;-59
2023/06/22 03:08:15;;;;;;;6.78;6.30;;;;;;;;;;5079056;28;20588;-59
2023/06/22 03:10:43;;;;;;;6.75;6.30;;;;;;;;;;5079462;28;20228;-59
2023/06/22 03:13:12;;;;;;;7.22;6.63;;;;;;;;;;5079276;28;20211;-59
2023/06/22 03:15:39;;;;;;;7.18;6.65;;;;;;;;;;5079291;28;20212;-60
2023/06/22 03:18:07;;;;;;;7.03;6.53;;;;;;;;;;5079562;28;20573;-59
2023/06/22 03:20:35;;;;;;;7.05;6.45;;;;;;;;;;5079027;28;20461;-60
2023/06/22 03:23:02;;;;;;;7.22;6.70;;;;;;;;;;5079041;28;20204;-59
2023/06/22 03:25:30;;;;;;;6.90;6.40;;;;;;;;;;5079060;28;20212;-59
2023/06/22 03:27:57;;;;;;;6.70;6.20;;;;;;;;;;5079125;28;20486;-59
2023/06/22 03:30:26;;;;;;;6.57;6.18;;;;;;;;;;5078884;28;20289;-59
2023/06/22 03:32:54;;;;;;;6.53;6.03;;;;;;;;;;5078739;28;20204;-59
2023/06/22 03:35:21;;;;;;;7.20;6.60;;;;;;;;;;5078842;28;20205;-59
2023/06/22 03:37:49;;;;;;;6.70;6.20;;;;;;;;;;5078591;28;20476;-60
2023/06/22 03:40:16;;;;;;;6.60;6.20;;;;;;;;;;5070788;28;20201;-59
2023/06/22 03:42:44;;;;;;;6.93;6.32;;;;;;;;;;5078722;28;20279;-59
2023/06/22 03:45:12;;;;;;;7.35;6.82;;;;;;;;;;5078683;28;20204;-59
2023/06/22 03:47:41;;;;;;;6.60;6.20;;;;;;;;;;5078579;28;20204;-59
2023/06/22 03:50:09;;;;;;;7.22;6.72;;;;;;;;;;5077962;28;20228;-59
2023/06/22 03:52:37;;;;;;;7.22;6.72;;;;;;;;;;5078210;28;20205;-59
2023/06/22 03:55:04;;;;;;;7.07;6.47;;;;;;;;;;5077866;28;20244;-59
2023/06/22 03:57:32;;;;;;;6.93;6.35;;;;;;;;;;5078324;28;20211;-59
2023/06/22 04:00:00;;;;;;;7.47;6.70;;;;;;;;;;5077961;28;20642;-59
2023/06/22 04:02:27;;;;;;;7.10;6.60;;;;;;;;;;5077342;28;20208;-59
2023/06/22 04:04:56;;;;;;;6.75;6.25;;;;;;;;;;5077952;28;20294;-59
2023/06/22 04:07:23;;;;;;;7.00;6.50;;;;;;;;;;5077534;28;20487;-59
2023/06/22 04:09:51;;;;;;;7.18;6.68;;;;;;;;;;5077745;28;20204;-59
2023/06/22 04:12:18;;;;;;;6.68;6.18;;;;;;;;;;5077679;28;20210;-59
2023/06/22 04:14:46;;;;;;;7.57;6.97;;;;;;;;;;5077478;28;20298;-59
2023/06/22 04:17:14;;;;;;;7.07;6.57;;;;;;;;;;5078012;28;20204;-59
2023/06/22 04:19:41;;;;;;;7.15;6.65;;;;;;;;;;5077880;28;20216;-59
2023/06/22 04:22:10;;;;;;;7.20;6.57;;;;;;;;;;5076871;28;20296;-60
2023/06/22 04:24:38;;;;;;;7.22;6.72;;;;;;;;;;5077476;28;20204;-59
2023/06/22 04:27:05;;;;;;;7.22;6.70;;;;;;;;;;5077473;28;20262;-60
2023/06/22 04:29:33;;;;;;;7.25;6.75;;;;;;;;;;5077534;28;20291;-59
2023/06/22 04:32:02;;;;;;;7.38;6.85;;;;;;;;;;5076773;28;20699;-59
2023/06/22 04:34:30;;;;;;;6.97;6.47;;;;;;;;;;5076898;28;20215;-59
2023/06/22 04:36:58;;;;;;;6.93;6.43;;;;;;;;;;5076241;28;20232;-59
2023/06/22 04:39:27;;;;;;;7.13;6.53;;;;;;;;;;5076390;28;20573;-59
2023/06/22 04:41:59;;;;;;;7.72;7.13;;;;;;;;;;5077276;28;20520;-59
2023/06/22 04:44:27;;;;;;;7.93;7.32;;;;;;;;;;5076592;28;20208;-59
2023/06/22 04:46:59;;;;;;;7.95;7.35;;;;;;;;;;5076427;28;20236;-59
2023/06/22 04:49:32;;;;;;;7.03;6.53;;;;;;;;;;5075760;28;20219;-59
2023/06/22 04:52:00;;;;;;;8.18;7.47;;;;;;;;;;5075587;28;20235;-59
2023/06/22 04:54:29;;;;;;;7.65;7.15;;;;;;;;;;5076209;28;20212;-59
2023/06/22 04:56:57;;;;;;;8.00;7.40;;;;;;;;;;5075632;28;20208;-59
2023/06/22 04:59:28;;;;;;;7.85;7.30;;;;;;;;;;5075768;28;20622;-59
2023/06/22 05:01:56;;;;;;;7.57;7.07;;;;;;;;;;5076918;28;20192;-59
2023/06/22 05:04:24;;;;;;;8.57;7.88;;;;;;;;;;5080045;28;20585;-59
2023/06/22 05:06:51;;;;;;;7.85;7.15;;;;;;;;;;5080568;28;20493;-59
2023/06/22 05:09:18;;;;;;;7.68;7.18;;;;;;;;;;5076609;28;20204;-59
2023/06/22 05:11:47;;;;;;;8.27;7.68;;;;;;;;;;5084968;28;20530;-59
2023/06/22 05:14:15;;;;;;;8.55;7.95;;;;;;;;;;5094639;28;20196;-59
2023/06/22 05:16:43;;;;;;;8.73;8.13;;;;;;;;;;5095051;28;20613;-59
2023/06/22 05:19:10;;;;;;;8.95;8.25;;;;;;;;;;5094983;28;20310;-59
2023/06/22 05:21:38;;;;;;;8.63;7.93;;;;;;;;;;5093821;28;20207;-59
2023/06/22 05:24:06;;;;;;;9.57;8.75;;;;;;;;;;5095183;28;20225;-59
2023/06/22 05:26:34;;;;;;;9.05;8.35;;;;;;;;;;5095024;28;20294;-59
2023/06/22 05:32:06;;;;;;;8.30;7.70;;;;;;;;;;5094331;28;20218;-59
2023/06/22 05:34:33;;;;;;;8.70;8.02;;;;;;;;;;5094903;28;20211;-59
2023/06/22 05:37:00;;;;;;;8.77;8.07;;;;;;;;;;5094949;28;20577;-60
2023/06/22 05:39:28;;;;;;;8.80;8.10;;;;;;;;;;5094624;28;20230;-60
2023/06/22 05:41:55;;;;;;;8.65;7.95;;;;;;;;;;5095170;28;20206;-59
2023/06/22 05:44:23;;;;;;;8.85;8.07;;;;;;;;;;5094514;28;20203;-59
2023/06/22 05:46:50;;;;;;;8.80;8.13;;;;;;;;;;5094236;28;20211;-59
2023/06/22 05:49:19;;;;;;;8.43;7.82;;;;;;;;;;5094411;28;20211;-59
2023/06/22 05:51:46;;;;;;;9.40;8.70;;;;;;;;;;5095188;28;20227;-59
2023/06/22 05:54:15;;;;;;;8.75;8.15;;;;;;;;;;5094960;28;20211;-59
2023/06/22 05:56:42;;;;;;;8.98;8.25;;;;;;;;;;5094131;28;20195;-60
2023/06/22 05:59:10;;;;;;;9.35;8.65;;;;;;;;;;5095263;28;20209;-60
2023/06/22 06:01:37;;;;;;;9.13;8.52;;;;;;;;;;5094492;28;20200;-59
2023/06/22 06:04:04;;;;;;;9.45;8.65;;;;;;;;;;5094744;28;20204;-59
2023/06/22 06:06:36;;;;;;;9.23;8.52;;;;;;;;;;5095137;28;20208;-59
2023/06/22 06:09:04;;;;;;;8.90;8.20;;;;;;;;;;5095494;28;20235;-59
2023/06/22 06:11:32;;;;;;;8.80;8.10;;;;;;;;;;5095170;28;20226;-59
2023/06/22 06:13:59;;;;;;;9.20;8.38;;;;;;;;;;5095070;28;20499;-60
2023/06/22 06:16:26;;;;;;;8.95;8.25;;;;;;;;;;5095046;28;20204;-59
2023/06/22 06:18:55;;;;;;;8.82;8.05;;;;;;;;;;5094603;28;20203;-59
2023/06/22 06:21:23;;;;;;;9.20;8.52;;;;;;;;;;5094304;28;20192;-60
2023/06/22 06:23:53;;;;;;;8.60;8.00;;;;;;;;;;5094583;28;20212;-60
2023/06/22 06:26:32;;;;;;;8.88;8.07;;;;;;;;;;5095490;28;20486;-60
2023/06/22 06:29:02;;;;;;;8.82;8.13;;;;;;;;;;5098159;28;20264;-60
2023/06/22 06:31:30;;;;;;;8.73;8.00;;;;;;;;;;5098041;28;20301;-60
2023/06/22 06:33:57;;;;;;;8.77;8.07;;;;;;;;;;5096856;28;20288;-59
2023/06/22 06:36:24;;;;;;;9.55;8.80;;;;;;;;;;5097698;28;20211;-59
2023/06/22 06:38:53;;;;;;;8.68;7.93;;;;;;;;;;5098019;28;20540;-59
2023/06/22 06:41:20;;;;;;;9.13;8.43;;;;;;;;;;5097521;28;20207;-59
2023/06/22 06:43:48;;;;;;;8.70;8.00;;;;;;;;;;5097694;28;20230;-60
2023/06/22 06:46:15;;;;;;;8.93;8.13;;;;;;;;;;5098760;28;20245;-60
2023/06/22 06:48:42;;;;;;;9.32;8.45;;;;;;;;;;5098212;28;20212;-60
2023/06/22 06:51:10;;;;;;;8.52;7.82;;;;;;;;;;5098244;28;20301;-60
2023/06/22 06:53:37;;;;;;;8.80;8.10;;;;;;;;;;5097113;28;20207;-60
2023/06/22 06:56:06;;;;;;;8.63;7.82;;;;;;;;;;5096385;28;20529;-60
2023/06/22 06:58:33;;;;;;;9.40;8.50;;;;;;;;;;5097473;28;20203;-59
2023/06/22 07:01:01;;;;;;;9.15;8.45;;;;;;;;;;5096656;28;20207;-59
2023/06/22 07:03:28;;;;;;;8.80;8.10;;;;;;;;;;5096668;28;20200;-59
2023/06/22 07:05:55;;;;;;;8.82;8.13;;;;;;;;;;5096552;28;20203;-59
2023/06/22 07:08:23;;;;;;;8.40;7.80;;;;;;;;;;5097188;28;20296;-59
2023/06/22 07:10:50;;;;;;;9.25;8.55;;;;;;;;;;5098015;28;20211;-60
2023/06/22 07:13:19;;;;;;;9.27;8.50;;;;;;;;;;5097303;28;20584;-60
2023/06/22 07:15:46;;;;;;;9.15;8.35;;;;;;;;;;5097634;28;20204;-59
2023/06/22 07:18:14;;;;;;;9.30;8.52;;;;;;;;;;5096378;28;20215;-59
2023/06/22 07:20:42;;;;;;;9.00;8.30;;;;;;;;;;5096417;28;20200;-59
2023/06/22 07:23:09;;;;;;;9.20;8.50;;;;;;;;;;5096811;28;20298;-59
2023/06/22 07:25:36;;;;;;;9.70;8.77;;;;;;;;;;5096323;28;20210;-59
2023/06/22 07:28:04;;;;;;;9.30;8.50;;;;;;;;;;5096520;28;20218;-59
2023/06/22 07:30:33;;;;;;;9.00;8.30;;;;;;;;;;5096886;28;20203;-59
2023/06/22 07:33:03;;;;;;;9.32;8.52;;;;;;;;;;5096885;28;20626;-59
2023/06/22 07:35:31;;;;;;;8.73;8.02;;;;;;;;;;5097111;28;20204;-59
2023/06/22 07:37:58;;;;;;;9.00;8.30;;;;;;;;;;5095863;28;20686;-59
2023/06/22 07:40:26;;;;;;;8.90;8.10;;;;;;;;;;5096318;28;20651;-59
2023/06/22 07:42:53;;;;;;;8.70;8.10;;;;;;;;;;5097404;28;20196;-59
2023/06/22 07:45:20;;;;;;;9.68;8.88;;;;;;;;;;5096703;28;20204;-60
2023/06/22 07:47:49;;;;;;;9.45;8.65;;;;;;;;;;5096183;28;20200;-60
2023/06/22 07:50:16;;;;;;;9.02;8.32;;;;;;;;;;5087354;28;20306;-59
2023/06/22 07:52:44;;;;;;;9.70;8.90;;;;;;;;;;5097004;28;20227;-59
2023/06/22 07:55:11;;;;;;;9.15;8.45;;;;;;;;;;5096495;28;20298;-60
2023/06/22 07:57:38;;;;;;;9.63;8.90;;;;;;;;;;5096501;28;20601;-59
2023/06/22 08:00:14;;;;;;;9.98;9.18;;;;;;;;;;5095728;28;20524;-59
2023/06/22 08:02:42;;;;;;;10.30;9.25;;;;;;;;;;5096302;28;20203;-59
2023/06/22 08:05:11;;;;;;;9.98;9.20;;;;;;;;;;5096480;28;20203;-60
2023/06/22 08:07:39;;;;;;;9.95;9.13;;;;;;;;;;5096399;28;20196;-59
2023/06/22 08:10:07;;;;;;;9.93;9.13;;;;;;;;;;5096579;28;20490;-59
2023/06/22 08:12:34;;;;;;;9.10;8.45;;;;;;;;;;5096484;28;20238;-59
2023/06/22 08:15:01;;;;;;;9.98;9.18;;;;;;;;;;5096121;28;20203;-59
2023/06/22 08:17:29;;;;;;;9.60;8.90;;;;;;;;;;5096094;28;20211;-59
2023/06/22 08:19:56;;;;;;;9.48;8.77;;;;;;;;;;5096430;28;20211;-59
2023/06/22 08:22:25;;;;;;;10.18;9.38;;;;;;;;;;5096513;28;20598;-59
2023/06/22 08:24:54;;;;;;;9.57;8.77;;;;;;;;;;5096364;28;20219;-59
2023/06/22 08:27:23;;;;;;;9.27;8.57;;;;;;;;;;5095755;28;20211;-59
2023/06/22 08:29:51;;;;;;;9.77;9.07;;;;;;;;;;5095715;28;20203;-59
2023/06/22 08:32:18;;;;;;;10.55;9.75;;;;;;;;;;5095473;28;20234;-59
2023/06/22 08:34:46;;;;;;;9.77;8.98;;;;;;;;;;5095220;28;20200;-60
2023/06/22 08:37:13;;;;;;;9.73;9.02;;;;;;;;;;5095087;28;20236;-60
2023/06/22 08:39:42;;;;;;;10.40;9.60;;;;;;;;;;5095576;28;20218;-60
2023/06/22 08:42:09;;;;;;;9.68;8.98;;;;;;;;;;5094880;28;20200;-59
2023/06/22 08:44:37;;;;;;;10.15;9.35;;;;;;;;;;5095106;28;20207;-59
2023/06/22 08:47:04;;;;;;;10.80;9.90;;;;;;;;;;5094521;28;20231;-60
2023/06/22 08:49:31;;;;;;;9.52;8.82;;;;;;;;;;5094424;28;20214;-60
2023/06/22 08:51:59;;;;;;;10.07;9.38;;;;;;;;;;5095769;28;20224;-59
2023/06/22 08:54:26;;;;;;;9.82;9.05;;;;;;;;;;5095599;28;20614;-59
2023/06/22 08:56:55;;;;;;;9.77;8.98;;;;;;;;;;5094859;28;20726;-59
2023/06/22 08:59:22;;;;;;;9.65;8.88;;;;;;;;;;5095510;28;20207;-59
2023/06/22 09:01:49;;;;;;;9.73;8.93;;;;;;;;;;5095095;28;20207;-59
2023/06/22 09:04:17;;;;;;;10.20;9.40;;;;;;;;;;5095476;28;20204;-59
2023/06/22 09:06:46;;;;;;;8.90;8.20;;;;;;;;;;5094649;28;20268;-60
2023/06/22 09:09:14;;;;;;;9.90;9.10;;;;;;;;;;5094987;28;20239;-59
2023/06/22 09:11:41;;;;;;;9.82;9.02;;;;;;;;;;5095305;28;20224;-59
2023/06/22 09:14:10;;;;;;;9.98;9.18;;;;;;;;;;5094483;28;20199;-59
2023/06/22 09:16:37;;;;;;;10.00;9.20;;;;;;;;;;5095488;28;20208;-60
2023/06/22 09:19:05;;;;;;;9.35;8.65;;;;;;;;;;5095504;28;20610;-60
2023/06/22 09:21:32;;;;;;;9.75;9.05;;;;;;;;;;5095073;28;20204;-60
2023/06/22 09:23:59;;;;;;;9.30;8.63;;;;;;;;;;5095609;28;20208;-60
2023/06/22 09:26:27;;;;;;;9.80;9.00;;;;;;;;;;5094820;28;20195;-60
2023/06/22 09:28:54;;;;;;;9.65;8.90;;;;;;;;;;5094809;28;20203;-59
2023/06/22 09:31:25;;;;;;;9.88;9.10;;;;;;;;;;5093571;28;20605;-60
2023/06/22 09:33:53;;;;;;;9.27;8.43;;;;;;;;;;5094517;28;20306;-60
2023/06/22 09:36:21;;;;;;;8.90;8.27;;;;;;;;;;5095237;28;20203;-60
2023/06/22 09:38:55;;;;;;;10.00;9.20;;;;;;;;;;5094117;28;20207;-59
2023/06/22 09:41:22;;;;;;;9.35;8.57;;;;;;;;;;5094868;28;20234;-60
2023/06/22 09:43:49;;;;;;;9.90;9.20;;;;;;;;;;5095404;28;20208;-60
2023/06/22 09:46:16;;;;;;;9.10;8.40;;;;;;;;;;5086425;28;20207;-59
2023/06/22 09:48:45;;;;;;;9.75;9.05;;;;;;;;;;5094931;28;20203;-59
2023/06/22 09:51:13;;;;;;;9.40;8.70;;;;;;;;;;5094941;28;20215;-59
2023/06/22 09:53:40;;;;;;;9.85;9.05;;;;;;;;;;5094155;28;20223;-59
2023/06/22 09:56:11;;;;;;;9.57;8.88;;;;;;;;;;5094145;28;20211;-59
2023/06/22 09:58:38;;;;;;;10.18;9.38;;;;;;;;;;5094067;28;20204;-59
2023/06/22 10:01:05;;;;;;;9.57;8.63;;;;;;;;;;5096480;28;20215;-59
2023/06/22 10:03:33;;;;;;;10.13;9.43;;;;;;;;;;5098540;28;20473;-59
2023/06/22 10:06:02;;;;;;;9.57;8.77;;;;;;;;;;5097412;28;20679;-59
2023/06/22 10:08:29;;;;;;;10.10;9.30;;;;;;;;;;5098175;28;20253;-59
2023/06/22 10:10:56;;;;;;;9.80;9.00;;;;;;;;;;5097779;28;20257;-59
2023/06/22 10:13:24;;;;;;;9.82;9.02;;;;;;;;;;5097481;28;20231;-59
2023/06/22 10:15:52;;;;;;;10.00;9.10;;;;;;;;;;5097765;28;20199;-60
2023/06/22 10:18:19;;;;;;;9.27;8.57;;;;;;;;;;5097791;28;20223;-59
2023/06/22 10:20:51;;;;;;;10.10;9.30;;;;;;;;;;5096665;28;20204;-59
2023/06/22 10:23:20;;;;;;;9.45;8.65;;;;;;;;;;5096965;28;20196;-59
2023/06/22 10:25:47;;;;;;;9.50;8.60;;;;;;;;;;5097175;28;20252;-59
2023/06/22 10:28:14;;;;;;;9.57;8.85;;;;;;;;;;5089279;28;20450;-59
2023/06/22 10:30:42;;;;;;;9.57;8.88;;;;;;;;;;5097137;28;20203;-59
2023/06/22 10:33:09;;;;;;;8.95;8.25;;;;;;;;;;5096827;28;20227;-60
2023/06/22 10:35:37;;;;;;;9.00;8.30;;;;;;;;;;5096065;28;20494;-60
2023/06/22 10:38:05;;;;;;;9.20;8.55;;;;;;;;;;5096373;28;20318;-60
2023/06/22 10:40:34;;;;;;;9.40;8.65;;;;;;;;;;5096676;28;20211;-60
2023/06/22 10:43:01;;;;;;;8.40;7.80;;;;;;;;;;5097230;28;20701;-60
2023/06/22 10:45:29;;;;;;;8.65;7.95;;;;;;;;;;5096126;28;20196;-60
2023/06/22 10:47:56;;;;;;;8.85;8.25;;;;;;;;;;5097045;28;20215;-60
2023/06/22 10:50:24;;;;;;;8.57;7.90;;;;;;;;;;5097411;28;20234;-60
2023/06/22 10:52:51;;;;;;;9.05;8.35;;;;;;;;;;5096526;28;20223;-60
2023/06/22 10:55:18;;;;;;;8.98;8.35;;;;;;;;;;5097153;28;20612;-60
2023/06/22 10:57:48;;;;;;;8.65;8.05;;;;;;;;;;5096125;28;20207;-60
2023/06/22 11:00:16;;;;;;;8.88;8.18;;;;;;;;;;5096941;28;20265;-60
2023/06/22 11:02:43;;;;;;;8.75;7.95;;;;;;;;;;5096443;28;20298;-60
2023/06/22 11:05:10;;;;;;;8.02;7.43;;;;;;;;;;5096331;28;20208;-60
2023/06/22 11:07:38;;;;;;;8.82;8.18;;;;;;;;;;5096528;28;20208;-60
2023/06/22 11:10:07;;;;;;;8.82;8.23;;;;;;;;;;5096236;28;20210;-60
2023/06/22 11:12:34;;;;;;;9.15;8.38;;;;;;;;;;5095550;28;20215;-60
2023/06/22 11:15:02;;;;;;;8.52;7.93;;;;;;;;;;5096691;28;20207;-61
2023/06/22 11:17:30;;;;;;;8.65;8.05;;;;;;;;;;5096245;28;20491;-60
2023/06/22 11:19:58;;;;;;;9.27;8.52;;;;;;;;;;5096046;28;20204;-60
2023/06/22 11:22:26;;;;;;;8.60;8.00;;;;;;;;;;5096603;28;20253;-60
2023/06/22 11:24:53;;;;;;;8.77;8.07;;;;;;;;;;5095836;28;20208;-60
2023/06/22 11:27:20;;;;;;;8.75;7.95;;;;;;;;;;5095847;28;20290;-60
2023/06/22 11:29:48;;;;;;;8.90;8.30;;;;;;;;;;5096320;28;20595;-60
2023/06/22 11:32:16;;;;;;;8.80;8.10;;;;;;;;;;5095959;28;20203;-59
2023/06/22 11:34:44;;;;;;;8.75;7.97;;;;;;;;;;5095114;28;20199;-59
2023/06/22 11:37:11;;;;;;;8.70;8.05;;;;;;;;;;5095757;28;20243;-59
2023/06/22 11:39:38;;;;;;;8.10;7.50;;;;;;;;;;5096209;28;20211;-59
2023/06/22 11:42:05;;;;;;;8.85;8.15;;;;;;;;;;5095459;28;20269;-59
2023/06/22 11:44:33;;;;;;;8.70;8.07;;;;;;;;;;5096404;28;20211;-60
2023/06/22 11:47:03;;;;;;;8.75;8.05;;;;;;;;;;5095629;28;20237;-60
2023/06/22 11:49:32;;;;;;;8.05;7.45;;;;;;;;;;5094469;28;20207;-59
2023/06/22 11:52:00;;;;;;;8.80;8.05;;;;;;;;;;5095235;28;20583;-59
2023/06/22 11:54:27;;;;;;;8.23;7.53;;;;;;;;;;5096273;28;20239;-60
2023/06/22 11:56:54;;;;;;;8.13;7.47;;;;;;;;;;5096005;28;20203;-60
2023/06/22 11:59:22;;;;;;;7.72;7.22;;;;;;;;;;5094749;28;20237;-60
2023/06/22 12:01:50;;;;;;;8.27;7.68;;;;;;;;;;5094932;28;20303;-59
2023/06/22 12:04:18;;;;;;;7.90;7.20;;;;;;;;;;5095896;28;20204;-60
2023/06/22 12:06:46;;;;;;;7.93;7.22;;;;;;;;;;5094914;28;20268;-60
2023/06/22 12:09:14;;;;;;;8.20;7.50;;;;;;;;;;5095916;28;20495;-60
2023/06/22 12:11:41;;;;;;;7.40;6.90;;;;;;;;;;5094277;28;20302;-60
2023/06/22 12:14:09;;;;;;;8.00;7.40;;;;;;;;;;5094152;28;20288;-60
2023/06/22 12:16:36;;;;;;;8.00;7.40;;;;;;;;;;5094679;28;20203;-60
2023/06/22 12:19:03;;;;;;;8.55;7.55;;;;;;;;;;5095605;28;20226;-60
2023/06/22 12:21:31;;;;;;;8.27;7.55;;;;;;;;;;5095637;28;20203;-60
2023/06/22 12:23:59;;;;;;;7.55;6.95;;;;;;;;;;5095654;28;20653;-60
2023/06/22 12:26:27;;;;;;;8.00;7.30;;;;;;;;;;5094995;28;20211;-59
2023/06/22 12:28:56;;;;;;;7.40;6.80;;;;;;;;;;5094980;28;20238;-59
2023/06/22 12:31:24;;;;;;;7.20;6.70;;;;;;;;;;5095229;28;20199;-59
2023/06/22 12:33:51;;;;;;;7.63;7.03;;;;;;;;;;5094902;28;20231;-59
2023/06/22 12:36:18;;;;;;;7.25;6.75;;;;;;;;;;5094622;28;20744;-59
2023/06/22 12:38:45;;;;;;;7.40;6.80;;;;;;;;;;5094541;28;20873;-59
2023/06/22 12:41:15;;;;;;;8.00;7.30;;;;;;;;;;5093702;28;20634;-60
2023/06/22 12:43:43;;;;;;;7.65;7.05;;;;;;;;;;5094052;28;20206;-60
2023/06/22 12:46:10;;;;;;;8.38;7.68;;;;;;;;;;5094180;28;20210;-60
2023/06/22 12:48:41;;;;;;;8.20;7.40;;;;;;;;;;5095445;28;20237;-60
2023/06/22 12:51:09;;;;;;;7.63;6.93;;;;;;;;;;5095119;28;20211;-60
2023/06/22 12:53:36;;;;;;;8.35;7.57;;;;;;;;;;5094410;28;20320;-60
2023/06/22 12:56:03;;;;;;;7.90;7.28;;;;;;;;;;5094257;28;20333;-60
2023/06/22 12:58:32;;;;;;;8.38;7.68;;;;;;;;;;5094491;28;20256;-60
2023/06/22 13:00:59;;;;;;;8.50;7.80;;;;;;;;;;5093839;28;20203;-60
2023/06/22 13:03:27;;;;;;;9.55;7.90;;;;;;;;;;5093768;28;20230;-60
2023/06/22 13:05:55;;;;;;;8.27;7.60;;;;;;;;;;5094758;28;20200;-60
2023/06/22 13:08:22;;;;;;;8.43;7.60;;;;;;;;;;5094467;28;20203;-60
2023/06/22 13:10:50;;;;;;;8.27;7.57;;;;;;;;;;5093384;28;20213;-60
2023/06/22 13:13:17;;;;;;;8.25;7.65;;;;;;;;;;5094481;28;20223;-60
2023/06/22 13:15:46;;;;;;;7.93;7.22;;;;;;;;;;5094515;28;20212;-60
2023/06/22 13:18:13;;;;;;;8.30;7.60;;;;;;;;;;5095138;28;20204;-60
2023/06/22 13:20:41;;;;;;;7.72;7.05;;;;;;;;;;5094614;28;20212;-60
2023/06/22 13:23:08;;;;;;;8.52;7.75;;;;;;;;;;5094557;28;20599;-60
2023/06/22 13:25:35;;;;;;;8.90;7.53;;;;;;;;;;5094202;28;20542;-60
2023/06/22 13:28:03;;;;;;;8.13;7.43;;;;;;;;;;5094533;28;20211;-60
2023/06/22 13:30:31;;;;;;;8.45;7.72;;;;;;;;;;5094009;28;20302;-60
2023/06/22 13:33:00;;;;;;;8.15;7.38;;;;;;;;;;5093422;28;20215;-60
2023/06/22 13:35:27;;;;;;;7.80;7.15;;;;;;;;;;5095063;28;20215;-60
2023/06/22 13:37:55;;;;;;;8.00;7.30;;;;;;;;;;5097855;28;20300;-60
2023/06/22 13:49:40;;;;;;;7.68;7.00;;;;;;;;;;5096894;28;20194;-60
2023/06/22 13:52:10;;;;;;;8.45;7.72;;;;;;;;;;5098306;28;20289;-60
2023/06/22 13:54:37;;;;;;;8.00;7.20;;;;;;;;;;5096985;28;20292;-60
2023/06/22 13:57:05;;;;;;;7.68;7.07;;;;;;;;;;5096841;28;20207;-60
2023/06/22 13:59:32;;;;;;;7.82;7.13;;;;;;;;;;5096799;28;20239;-60
2023/06/22 14:01:59;;;;;;;6.95;6.45;;;;;;;;;;5098654;28;20207;-60
2023/06/22 14:04:28;;;;;;;7.70;7.00;;;;;;;;;;5097646;28;20214;-60
2023/06/22 14:06:57;;;;;;;8.20;7.50;;;;;;;;;;5097913;28;20203;-60
2023/06/22 14:09:25;;;;;;;8.00;7.32;;;;;;;;;;5097911;28;20299;-60
2023/06/22 14:11:52;;;;;;;7.90;7.20;;;;;;;;;;5096979;28;20294;-60
2023/06/22 14:14:20;;;;;;;7.32;6.63;;;;;;;;;;5097336;28;20322;-60
2023/06/22 14:16:49;;;;;;;8.02;7.22;;;;;;;;;;5097575;28;20256;-60
2023/06/22 14:19:16;;;;;;;7.80;7.10;;;;;;;;;;5097742;28;20206;-60
2023/06/22 14:21:44;;;;;;;8.23;7.53;;;;;;;;;;5097892;28;20286;-60
2023/06/22 14:24:12;;;;;;;7.90;7.20;;;;;;;;;;5097729;28;20295;-60
2023/06/22 14:26:40;;;;;;;7.47;6.63;;;;;;;;;;5097456;28;20235;-60
2023/06/22 14:29:07;;;;;;;7.22;6.63;;;;;;;;;;5097511;28;20302;-60
2023/06/22 14:31:35;;;;;;;7.93;7.13;;;;;;;;;;5097627;28;20204;-60
2023/06/22 14:34:05;;;;;;;7.07;6.47;;;;;;;;;;5096754;28;20234;-60
2023/06/22 14:36:32;;;;;;;7.20;6.60;;;;;;;;;;5096317;28;20207;-60
2023/06/22 14:39:00;;;;;;;7.75;7.10;;;;;;;;;;5097285;28;20195;-60
2023/06/22 14:41:28;;;;;;;7.65;6.95;;;;;;;;;;5097248;28;20200;-60
2023/06/22 14:43:56;;;;;;;7.50;6.80;;;;;;;;;;5097750;28;20286;-60
2023/06/22 14:46:23;;;;;;;7.38;6.68;;;;;;;;;;5096237;28;20290;-60
2023/06/22 14:48:51;;;;;;;7.53;6.82;;;;;;;;;;5096363;28;20423;-60
2023/06/22 14:51:18;;;;;;;7.43;6.82;;;;;;;;;;5096613;28;20203;-60
2023/06/22 14:53:46;;;;;;;7.28;6.60;;;;;;;;;;5097209;28;20259;-60
2023/06/22 14:56:15;;;;;;;7.28;6.63;;;;;;;;;;5096682;28;20657;-60
2023/06/22 14:58:45;;;;;;;7.68;6.80;;;;;;;;;;5096161;28;20207;-60
2023/06/22 15:01:13;;;;;;;7.13;6.53;;;;;;;;;;5095875;28;20211;-61